Time;durP1;ratioP1;P1;durP2;ratioP2;P2;SDS_P1;SDS_P2;PMS_P1;PMS_P2;Temp;Humidity;BMP_temperature;BMP_pressure;BME280_temperature;BME280_humidity;BME280_pressure;Samples;Min_cycle;Max_cycle;Signal;HPM_P1;HPM_P2
2023/04/21 00:00:56;;;;;;;7.60;5.05;;;;;;;10.23;57.91;93519.88;5065799;28;20023;-81
2023/04/21 00:03:26;;;;;;;9.93;4.55;;;;;;;10.24;57.72;93523.34;5065579;28;20041;-79
2023/04/21 00:05:52;;;;;;;7.82;4.90;;;;;;;10.23;57.89;93519.09;5065694;28;20219;-79
2023/04/21 00:08:17;;;;;;;7.10;3.92;;;;;;;10.21;57.82;93521.28;5065461;28;20017;-79
2023/04/21 00:10:44;;;;;;;9.88;5.13;;;;;;;10.17;57.83;93513.16;5065427;28;20320;-79
2023/04/21 00:13:12;;;;;;;11.02;5.07;;;;;;;10.16;57.95;93519.59;5065565;28;20112;-79
2023/04/21 00:15:37;;;;;;;11.75;5.43;;;;;;;10.15;58.06;93515.34;5065502;28;20066;-79
2023/04/21 00:18:03;;;;;;;11.50;5.38;;;;;;;10.12;58.21;93516.00;5065346;28;20310;-79
2023/04/21 00:20:29;;;;;;;8.73;4.60;;;;;;;10.17;58.14;93520.38;5064525;28;20028;-79
2023/04/21 00:22:55;;;;;;;9.82;4.53;;;;;;;10.13;57.82;93525.53;5064988;28;20016;-79
2023/04/21 00:25:22;;;;;;;8.93;4.53;;;;;;;10.12;57.62;93517.91;5065309;28;20192;-79
2023/04/21 00:27:47;;;;;;;8.57;4.50;;;;;;;10.09;57.48;93523.84;5064832;28;20274;-80
2023/04/21 00:30:16;;;;;;;11.50;4.32;;;;;;;10.07;57.32;93518.81;5065266;28;20021;-78
2023/04/21 00:32:41;;;;;;;9.25;4.22;;;;;;;10.09;56.81;93535.25;5065142;28;20017;-79
2023/04/21 00:35:07;;;;;;;7.50;4.32;;;;;;;10.09;56.86;93521.94;5065160;28;20092;-80
2023/04/21 00:37:33;;;;;;;11.60;4.20;;;;;;;10.11;57.12;93527.75;5065061;28;20021;-80
2023/04/21 00:40:02;;;;;;;7.25;3.97;;;;;;;10.09;57.07;93532.59;5065007;28;20039;-79
2023/04/21 00:42:28;;;;;;;9.18;3.90;;;;;;;10.08;57.12;93517.75;5064837;28;20515;-79
2023/04/21 00:44:54;;;;;;;9.57;4.13;;;;;;;10.15;56.96;93523.34;5064874;28;20029;-80
2023/04/21 00:47:19;;;;;;;8.20;4.25;;;;;;;10.12;56.91;93524.00;5064979;28;20056;-80
2023/04/21 00:49:46;;;;;;;9.05;4.00;;;;;;;10.09;56.69;93529.94;5064822;28;20080;-80
2023/04/21 00:52:14;;;;;;;8.13;4.40;;;;;;;10.04;56.69;93517.59;5064514;28;20219;-80
2023/04/21 00:54:40;;;;;;;8.77;4.43;;;;;;;10.04;56.92;93514.16;5065149;28;20025;-80
2023/04/21 00:57:06;;;;;;;8.60;4.45;;;;;;;9.93;57.29;93516.38;5064738;28;20078;-81
2023/04/21 00:59:32;;;;;;;7.97;4.28;;;;;;;9.96;57.44;93517.63;5064352;28;20480;-80
2023/04/21 01:01:58;;;;;;;8.45;4.32;;;;;;;9.93;57.84;93520.91;5064285;28;20028;-80
2023/04/21 01:04:24;;;;;;;8.50;3.92;;;;;;;9.92;57.62;93514.78;5064526;28;20040;-80
2023/04/21 01:06:50;;;;;;;14.27;4.00;;;;;;;9.96;57.83;93520.28;5064540;28;20035;-80
2023/04/21 01:09:16;;;;;;;6.80;4.32;;;;;;;10.01;57.44;93520.91;5064651;28;20211;-80
2023/04/21 01:11:58;;;;;;;9.35;4.18;;;;;;;9.99;57.79;93509.78;5063964;28;20048;-79
2023/04/21 01:14:24;;;;;;;7.18;3.88;;;;;;;9.97;57.76;93511.97;5064161;28;20029;-80
2023/04/21 01:16:50;;;;;;;6.45;3.88;;;;;;;9.96;57.91;93509.63;5064292;28;20032;-80
2023/04/21 01:19:15;;;;;;;11.13;4.88;;;;;;;9.94;58.15;93512.59;5064147;28;20048;-80
2023/04/21 01:21:41;;;;;;;7.07;4.32;;;;;;;9.92;58.53;93511.38;5062672;28;20052;-80
2023/04/21 01:24:07;;;;;;;7.75;4.30;;;;;;;9.86;58.74;93509.97;5064166;28;20036;-79
2023/04/21 01:26:32;;;;;;;8.27;4.45;;;;;;;9.90;58.55;93506.34;5064372;28;20025;-80
2023/04/21 01:28:58;;;;;;;6.53;3.83;;;;;;;9.84;58.79;93511.03;5064119;28;20231;-79
2023/04/21 01:31:26;;;;;;;10.88;3.88;;;;;;;9.79;58.53;93505.91;5063728;28;20042;-80
2023/04/21 01:33:51;;;;;;;9.05;4.25;;;;;;;9.70;58.98;93513.09;5063884;28;20027;-79
2023/04/21 01:36:17;;;;;;;8.10;4.88;;;;;;;9.74;58.62;93498.06;5063990;28;20017;-79
2023/04/21 01:38:42;;;;;;;8.05;4.15;;;;;;;9.77;58.79;93508.09;5063582;28;20032;-80
2023/04/21 01:41:09;;;;;;;11.20;5.22;;;;;;;9.76;58.68;93501.19;5063649;28;20056;-79
2023/04/21 01:43:36;;;;;;;9.52;4.40;;;;;;;9.74;58.57;93500.72;5063663;28;20025;-80
2023/04/21 01:46:02;;;;;;;6.93;3.95;;;;;;;9.73;58.46;93501.84;5063633;28;20029;-79
2023/04/21 01:48:28;;;;;;;10.02;4.40;;;;;;;9.76;58.48;93492.44;5063481;28;20273;-80
2023/04/21 01:50:53;;;;;;;10.85;4.47;;;;;;;9.74;58.52;93500.72;5063236;28;20020;-80
2023/04/21 01:53:18;;;;;;;8.20;4.20;;;;;;;9.71;58.52;93490.72;5063583;28;20021;-80
2023/04/21 01:55:44;;;;;;;11.48;4.80;;;;;;;9.67;58.61;93492.47;5063508;28;20218;-80
2023/04/21 01:58:09;;;;;;;9.18;3.85;;;;;;;9.63;58.44;93497.63;5063608;28;20021;-80
2023/04/21 02:00:35;;;;;;;8.80;3.72;;;;;;;9.66;58.45;93492.78;5063390;28;20025;-79
2023/04/21 02:03:00;;;;;;;10.35;4.60;;;;;;;9.57;58.76;93492.78;5062195;28;20399;-79
2023/04/21 02:05:26;;;;;;;17.90;5.97;;;;;;;9.63;58.85;93489.66;5063354;28;20024;-80
2023/04/21 02:07:51;;;;;;;12.63;3.85;;;;;;;9.58;58.82;93494.34;5062971;28;20021;-80
2023/04/21 02:10:17;;;;;;;13.60;3.97;;;;;;;9.60;59.10;93492.16;5063521;28;20353;-80
2023/04/21 02:12:42;;;;;;;12.50;4.55;;;;;;;9.59;59.24;93495.91;5063059;28;20357;-81
2023/04/21 02:15:08;;;;;;;8.20;4.60;;;;;;;9.59;59.11;93495.91;5063575;28;20215;-81
2023/04/21 02:17:35;;;;;;;9.82;5.05;;;;;;;9.57;59.63;93498.88;5063542;28;20021;-81
2023/04/21 02:20:00;;;;;;;8.25;4.68;;;;;;;9.56;59.89;93499.19;5063266;28;20021;-81
2023/04/21 02:22:26;;;;;;;8.23;4.97;;;;;;;9.57;59.99;93498.13;5062070;28;20039;-81
2023/04/21 02:24:51;;;;;;;10.75;4.75;;;;;;;9.54;60.16;93483.53;5062968;28;20041;-80
2023/04/21 02:27:17;;;;;;;8.50;5.03;;;;;;;9.49;60.50;93486.38;5063199;28;20215;-80
2023/04/21 02:29:42;;;;;;;13.05;5.50;;;;;;;9.42;60.88;93496.69;5063360;28;20072;-79
2023/04/21 02:32:08;;;;;;;10.60;4.90;;;;;;;9.48;61.03;93494.66;5063034;28;20314;-80
2023/04/21 02:34:34;;;;;;;14.30;5.75;;;;;;;9.42;61.14;93492.19;5062960;28;20029;-79
2023/04/21 02:36:59;;;;;;;10.90;5.10;;;;;;;9.43;61.35;93484.97;5063002;28;20029;-80
2023/04/21 02:39:25;;;;;;;10.00;5.10;;;;;;;9.47;61.56;93493.13;5062977;28;20025;-79
2023/04/21 02:41:51;;;;;;;9.57;5.50;;;;;;;9.45;61.88;93493.44;5062909;28;20124;-79
2023/04/21 02:44:19;;;;;;;11.43;5.25;;;;;;;9.43;61.50;93493.72;5064507;28;20029;-79
2023/04/21 02:46:44;;;;;;;10.30;5.78;;;;;;;9.48;61.43;93500.75;5067114;28;20021;-79
2023/04/21 02:49:10;;;;;;;9.73;6.35;;;;;;;9.52;61.45;93506.25;5067091;28;20097;-80
2023/04/21 02:51:36;;;;;;;8.00;5.35;;;;;;;9.58;61.30;93499.66;5065903;28;20025;-79
2023/04/21 02:54:02;;;;;;;12.25;5.95;;;;;;;9.58;61.83;93504.97;5066572;28;20314;-79
2023/04/21 02:56:27;;;;;;;9.13;5.20;;;;;;;9.56;61.64;93505.28;5066883;28;20032;-79
2023/04/21 02:58:53;;;;;;;9.00;5.72;;;;;;;9.59;61.71;93501.25;5066778;28;20024;-79
2023/04/21 03:01:19;;;;;;;8.80;4.78;;;;;;;9.66;61.16;93492.78;5066882;28;20251;-79
2023/04/21 03:03:46;;;;;;;11.35;5.68;;;;;;;9.68;61.53;93496.69;5066839;28;20294;-80
2023/04/21 03:06:13;;;;;;;11.00;5.45;;;;;;;9.69;61.20;93508.91;5066991;28;20204;-81
2023/04/21 03:08:38;;;;;;;8.27;4.93;;;;;;;9.73;61.39;93501.84;5066779;28;20028;-81
2023/04/21 03:11:04;;;;;;;8.60;5.22;;;;;;;9.80;61.00;93507.47;5066630;28;20079;-81
2023/04/21 03:13:29;;;;;;;11.88;5.28;;;;;;;9.74;61.01;93494.63;5066537;28;20115;-81
2023/04/21 03:15:56;;;;;;;9.27;4.55;;;;;;;9.65;60.97;93499.97;5066819;28;20052;-81
2023/04/21 03:18:21;;;;;;;9.80;4.85;;;;;;;9.74;60.64;93503.41;5066512;28;20032;-81
2023/04/21 03:20:47;;;;;;;8.48;4.95;;;;;;;9.74;60.51;93498.06;5066516;28;20055;-81
2023/04/21 03:23:12;;;;;;;9.07;4.72;;;;;;;9.76;60.67;93503.09;5066319;28;20070;-79
2023/04/21 03:25:38;;;;;;;8.95;5.25;;;;;;;9.73;60.78;93501.84;5066621;28;20028;-79
2023/04/21 03:28:03;;;;;;;9.77;5.53;;;;;;;9.76;60.95;93503.88;5066492;28;20091;-80
2023/04/21 03:30:29;;;;;;;7.15;4.65;;;;;;;9.75;60.42;93501.50;5066217;28;20025;-80
2023/04/21 03:32:54;;;;;;;7.38;4.15;;;;;;;9.71;60.05;93498.72;5066274;28;20025;-80
2023/04/21 03:35:20;;;;;;;9.60;4.85;;;;;;;9.69;60.31;93497.44;5066146;28;20021;-79
2023/04/21 03:37:48;;;;;;;10.43;5.22;;;;;;;9.69;60.48;93514.22;5066292;28;20013;-79
2023/04/21 03:40:14;;;;;;;7.10;4.82;;;;;;;9.68;60.58;93496.69;5065639;28;20025;-79
2023/04/21 03:42:42;;;;;;;18.00;5.63;;;;;;;9.59;60.62;93506.56;5066036;28;20027;-78
2023/04/21 03:45:09;;;;;;;6.53;4.63;;;;;;;9.58;60.79;93505.75;5066101;28;20269;-80
2023/04/21 03:47:35;;;;;;;14.55;5.28;;;;;;;9.59;60.77;93514.53;5065873;28;20040;-80
2023/04/21 03:50:04;;;;;;;13.52;5.18;;;;;;;9.55;60.64;93505.63;5065897;28;20281;-81
2023/04/21 03:52:29;;;;;;;9.15;5.82;;;;;;;9.56;60.61;93515.16;5065793;28;20033;-81
2023/04/21 03:54:55;;;;;;;13.15;6.10;;;;;;;9.50;60.69;93508.44;5065895;28;20048;-81
2023/04/21 03:57:20;;;;;;;8.15;5.20;;;;;;;9.48;60.71;93527.38;5065810;28;20028;-79
2023/04/21 03:59:46;;;;;;;9.52;5.53;;;;;;;9.53;60.91;93513.91;5065896;28;20036;-79
2023/04/21 04:02:11;;;;;;;10.35;6.00;;;;;;;9.55;60.82;93519.72;5065833;28;20040;-79
2023/04/21 04:04:37;;;;;;;10.75;5.10;;;;;;;9.57;60.69;93522.06;5065338;28;20024;-79
2023/04/21 04:07:02;;;;;;;10.15;5.53;;;;;;;9.56;60.38;93528.47;5065535;28;20323;-79
2023/04/21 04:09:28;;;;;;;9.82;5.45;;;;;;;9.61;60.63;93526.44;5065518;28;20016;-79
2023/04/21 04:11:53;;;;;;;12.50;6.22;;;;;;;9.68;60.57;93541.13;5065311;28;20106;-79
2023/04/21 04:14:19;;;;;;;11.07;5.25;;;;;;;9.73;60.08;93533.78;5065421;28;20353;-79
2023/04/21 04:16:44;;;;;;;8.55;5.50;;;;;;;9.74;60.25;93532.66;5065232;28;20331;-79
2023/04/21 04:19:10;;;;;;;9.05;5.63;;;;;;;9.77;60.08;93536.56;5065473;28;20063;-80
2023/04/21 04:21:36;;;;;;;14.32;5.32;;;;;;;9.87;59.84;93538.94;5065248;28;20023;-79
2023/04/21 04:24:02;;;;;;;8.65;5.55;;;;;;;9.92;60.10;93538.75;5065065;28;20021;-79
2023/04/21 04:26:28;;;;;;;9.20;5.85;;;;;;;9.97;59.84;93541.25;5064697;28;20094;-77
2023/04/21 04:28:55;;;;;;;10.55;6.10;;;;;;;10.04;59.82;93546.09;5064827;28;20029;-79
2023/04/21 04:31:21;;;;;;;11.45;5.85;;;;;;;10.02;59.38;93549.06;5065108;28;20025;-78
2023/04/21 04:33:46;;;;;;;10.68;5.22;;;;;;;10.08;59.31;93546.25;5064820;28;20049;-77
2023/04/21 04:36:12;;;;;;;9.80;5.97;;;;;;;10.07;59.52;93556.09;5065004;28;20028;-78
2023/04/21 04:38:38;;;;;;;12.20;5.95;;;;;;;10.08;59.34;93555.03;5065268;28;20071;-80
2023/04/21 04:41:03;;;;;;;11.27;6.25;;;;;;;10.16;59.61;93556.88;5064878;28;20021;-80
2023/04/21 04:43:32;;;;;;;10.05;5.97;;;;;;;10.18;60.18;93551.25;5063676;28;20115;-81
2023/04/21 04:45:58;;;;;;;10.27;5.78;;;;;;;10.12;59.91;93566.59;5064792;28;20102;-78
2023/04/21 04:48:24;;;;;;;10.48;5.78;;;;;;;10.11;60.28;93565.03;5064883;28;20066;-77
2023/04/21 04:50:49;;;;;;;7.88;5.70;;;;;;;10.16;60.31;93562.22;5064717;28;20323;-78
2023/04/21 04:53:15;;;;;;;9.68;6.38;;;;;;;10.24;60.17;93557.97;5064686;28;20082;-77
2023/04/21 04:55:41;;;;;;;10.32;6.07;;;;;;;10.18;60.13;93557.34;5064815;28;20048;-78
2023/04/21 04:58:06;;;;;;;12.90;6.15;;;;;;;10.13;60.27;93562.81;5064449;28;20215;-78
2023/04/21 05:00:32;;;;;;;8.48;5.72;;;;;;;10.21;60.62;93567.34;5064598;28;20094;-76
2023/04/21 05:02:57;;;;;;;8.90;5.70;;;;;;;10.22;60.13;93576.91;5063968;28;20025;-75
2023/04/21 05:05:23;;;;;;;11.50;6.60;;;;;;;10.22;60.25;93568.94;5064135;28;20021;-75
2023/04/21 05:07:49;;;;;;;13.73;6.30;;;;;;;10.18;60.60;93567.22;5063507;28;20024;-74
2023/04/21 05:10:14;;;;;;;10.60;6.75;;;;;;;10.16;60.67;93570.19;5063982;28;20189;-76
2023/04/21 05:12:40;;;;;;;9.05;5.70;;;;;;;10.15;60.79;93567.84;5063887;28;20040;-74
2023/04/21 05:15:06;;;;;;;10.45;6.05;;;;;;;10.12;60.32;93576.47;5063829;28;20025;-75
2023/04/21 05:17:32;;;;;;;13.93;7.05;;;;;;;10.15;60.59;93565.94;5064069;28;20115;-79
2023/04/21 05:19:57;;;;;;;10.77;5.40;;;;;;;10.10;61.00;93568.03;5064079;28;20063;-79
2023/04/21 05:22:23;;;;;;;12.10;6.40;;;;;;;10.16;61.46;93583.50;5063992;28;20021;-78
2023/04/21 05:24:48;;;;;;;12.85;6.60;;;;;;;10.19;61.36;93588.19;5063693;28;20028;-77
2023/04/21 05:27:14;;;;;;;12.35;6.82;;;;;;;10.24;61.72;93574.72;5062327;28;20021;-80
2023/04/21 05:29:40;;;;;;;10.10;5.95;;;;;;;10.29;61.19;93565.75;5063153;28;20044;-80
2023/04/21 05:32:05;;;;;;;10.82;5.93;;;;;;;10.36;61.39;93574.09;5064024;28;20372;-78
2023/04/21 05:34:31;;;;;;;11.10;6.43;;;;;;;10.41;60.91;93576.56;5063628;28;20028;-79
2023/04/21 05:36:56;;;;;;;12.45;6.13;;;;;;;10.42;60.88;93564.84;5062485;28;20027;-79
2023/04/21 05:39:22;;;;;;;10.02;5.47;;;;;;;10.41;60.86;93575.78;5063649;28;20024;-78
2023/04/21 05:41:47;;;;;;;9.50;5.93;;;;;;;10.41;61.24;93571.25;5063525;28;20059;-78
2023/04/21 05:44:15;;;;;;;12.80;5.75;;;;;;;10.54;60.77;93571.34;5063642;28;20029;-78
2023/04/21 05:46:41;;;;;;;11.20;6.53;;;;;;;10.57;60.68;93568.84;5063932;28;20318;-79
2023/04/21 05:49:06;;;;;;;12.55;5.78;;;;;;;10.59;60.94;93579.97;5063543;28;20043;-79
2023/04/21 05:51:32;;;;;;;11.30;5.65;;;;;;;10.68;60.41;93577.25;5063287;28;20238;-79
2023/04/21 05:53:57;;;;;;;11.95;6.15;;;;;;;10.74;60.29;93575.97;5062108;28;20021;-77
2023/04/21 05:56:23;;;;;;;10.00;6.22;;;;;;;10.76;60.37;93570.34;5063209;28;20251;-78
2023/04/21 05:58:48;;;;;;;12.88;6.63;;;;;;;10.79;60.29;93577.72;5062919;28;20020;-80
2023/04/21 06:01:14;;;;;;;11.65;5.88;;;;;;;10.74;60.49;93583.19;5061703;28;20037;-79
2023/04/21 06:03:39;;;;;;;15.55;7.22;;;;;;;10.76;60.90;93573.00;5063250;28;20045;-79
2023/04/21 06:06:05;;;;;;;14.43;6.70;;;;;;;10.82;59.93;93566.38;5063432;28;20150;-79
2023/04/21 06:08:31;;;;;;;10.43;6.53;;;;;;;10.88;60.77;93575.75;5063092;28;20091;-78
2023/04/21 06:10:57;;;;;;;16.38;6.97;;;;;;;10.91;60.99;93564.47;5063250;28;20032;-77
2023/04/21 06:13:22;;;;;;;11.13;6.68;;;;;;;10.95;60.90;93569.91;5062934;28;20037;-79
2023/04/21 06:15:48;;;;;;;10.55;6.25;;;;;;;11.04;60.55;93576.78;5063051;28;20299;-79
2023/04/21 06:18:16;;;;;;;11.98;6.53;;;;;;;11.00;60.50;93583.84;5062223;28;20109;-79
2023/04/21 06:20:41;;;;;;;13.38;7.65;;;;;;;10.80;60.46;93568.59;5063126;28;20024;-78
2023/04/21 06:23:08;;;;;;;17.60;6.72;;;;;;;10.91;60.70;93563.66;5062715;28;20088;-78
2023/04/21 06:25:34;;;;;;;9.80;5.95;;;;;;;10.99;61.07;93576.97;5063003;28;20095;-78
2023/04/21 06:27:59;;;;;;;11.82;7.20;;;;;;;11.02;60.28;93576.31;5062900;28;20032;-77
2023/04/21 06:30:25;;;;;;;14.60;7.28;;;;;;;11.11;60.16;93580.81;5062775;28;20035;-79
2023/04/21 06:32:50;;;;;;;10.73;7.03;;;;;;;11.22;59.87;93574.03;5062515;28;20226;-79
2023/04/21 06:35:16;;;;;;;12.10;6.68;;;;;;;11.20;59.20;93557.56;5063039;28;20032;-79
2023/04/21 06:37:41;;;;;;;14.70;6.95;;;;;;;11.24;59.50;93561.16;5062889;28;20036;-78
2023/04/21 06:40:07;;;;;;;14.02;7.10;;;;;;;11.37;59.48;93559.31;5062871;28;20311;-79
2023/04/21 06:42:33;;;;;;;12.27;6.38;;;;;;;11.40;59.14;93553.34;5062889;28;20033;-78
2023/04/21 06:44:58;;;;;;;11.15;5.85;;;;;;;11.50;59.14;93558.28;5062469;28;20029;-73
2023/04/21 06:47:23;;;;;;;15.73;6.40;;;;;;;11.40;59.74;93564.78;5062432;28;20052;-73
2023/04/21 06:49:49;;;;;;;11.65;6.53;;;;;;;11.44;59.29;93560.38;5062710;28;20031;-74
2023/04/21 06:52:14;;;;;;;10.85;5.90;;;;;;;11.41;59.02;93558.34;5062839;28;20021;-77
2023/04/21 06:54:40;;;;;;;11.85;5.68;;;;;;;11.45;58.52;93555.81;5062744;28;20118;-73
2023/04/21 06:57:05;;;;;;;11.63;6.13;;;;;;;11.51;58.44;93570.53;5062699;28;20029;-74
2023/04/21 06:59:31;;;;;;;17.45;5.63;;;;;;;11.53;58.71;93551.53;5062294;28;20071;-74
2023/04/21 07:01:56;;;;;;;13.73;5.32;;;;;;;11.61;57.14;93553.34;5062514;28;20365;-74
2023/04/21 07:04:22;;;;;;;11.35;5.78;;;;;;;11.68;58.61;93560.81;5062275;28;20025;-74
2023/04/21 07:06:48;;;;;;;11.25;5.85;;;;;;;11.61;57.82;93550.66;5060978;28;20056;-74
2023/04/21 07:09:13;;;;;;;12.57;5.35;;;;;;;11.66;57.69;93555.78;5062195;28;20028;-73
2023/04/21 07:11:39;;;;;;;10.20;5.65;;;;;;;11.72;57.15;93556.38;5061223;28;20044;-73
2023/04/21 07:14:05;;;;;;;12.40;5.70;;;;;;;11.75;58.00;93558.41;5060983;28;20372;-74
2023/04/21 07:16:30;;;;;;;14.10;5.75;;;;;;;11.76;58.26;93551.94;5062317;28;20033;-74
2023/04/21 07:18:56;;;;;;;8.50;5.82;;;;;;;11.82;58.20;93558.66;5062133;28;20318;-73
2023/04/21 07:21:21;;;;;;;7.65;5.30;;;;;;;11.90;57.64;93555.16;5062048;28;20349;-74
2023/04/21 07:23:47;;;;;;;10.25;5.50;;;;;;;11.96;56.45;93548.50;5061866;28;20067;-73
2023/04/21 07:26:12;;;;;;;17.98;6.00;;;;;;;12.14;56.65;93559.81;5062040;28;20318;-73
2023/04/21 07:28:39;;;;;;;7.13;5.07;;;;;;;12.21;56.29;93554.72;5061905;28;20106;-73
2023/04/21 07:31:05;;;;;;;13.80;5.88;;;;;;;12.41;56.52;93541.59;5063292;28;20087;-73
2023/04/21 07:33:31;;;;;;;9.90;5.68;;;;;;;12.47;55.34;93558.97;5064975;28;20029;-73
2023/04/21 07:35:56;;;;;;;10.63;4.68;;;;;;;12.45;56.17;93548.63;5065135;28;20032;-73
2023/04/21 07:38:22;;;;;;;11.15;5.10;;;;;;;12.70;55.38;93559.38;5065089;28;20258;-73
2023/04/21 07:40:47;;;;;;;14.30;5.57;;;;;;;12.74;53.89;93554.09;5063160;28;20025;-73
2023/04/21 07:43:12;;;;;;;12.05;5.50;;;;;;;12.80;54.91;93547.41;5065505;28;20294;-73
2023/04/21 07:45:38;;;;;;;11.52;5.88;;;;;;;12.78;55.49;93549.66;5065784;28;20040;-73
2023/04/21 07:48:06;;;;;;;10.60;5.55;;;;;;;12.88;53.91;93551.88;5065331;28;20021;-74
2023/04/21 07:50:32;;;;;;;8.38;4.78;;;;;;;12.95;54.00;93554.78;5065696;28;20040;-73
2023/04/21 07:52:57;;;;;;;9.55;5.07;;;;;;;13.01;53.38;93553.44;5065306;28;20246;-73
2023/04/21 07:55:23;;;;;;;11.57;6.50;;;;;;;13.02;53.37;93560.34;5065365;28;20021;-73
2023/04/21 07:57:48;;;;;;;7.25;4.65;;;;;;;13.15;52.54;93553.13;5065338;28;20033;-74
2023/04/21 08:00:14;;;;;;;9.30;4.18;;;;;;;13.11;52.89;93560.25;5065237;28;20386;-74
2023/04/21 08:02:40;;;;;;;14.60;5.57;;;;;;;13.11;52.80;93567.47;5065414;28;20084;-75
2023/04/21 08:05:06;;;;;;;9.23;4.82;;;;;;;13.22;52.74;93568.59;5064964;28;20029;-72
2023/04/21 08:07:31;;;;;;;6.88;4.00;;;;;;;13.31;52.19;93563.94;5064945;28;20029;-74
2023/04/21 08:09:56;;;;;;;10.27;4.28;;;;;;;13.46;52.10;93561.69;5065038;28;20226;-73
2023/04/21 08:12:22;;;;;;;8.27;4.88;;;;;;;13.48;52.17;93554.09;5064775;28;20053;-73
2023/04/21 08:14:47;;;;;;;7.60;4.97;;;;;;;13.51;52.20;93561.44;5064809;28;20314;-74
2023/04/21 08:17:13;;;;;;;9.85;5.60;;;;;;;13.34;51.96;93541.84;5064819;28;20028;-74
2023/04/21 08:19:38;;;;;;;9.95;4.97;;;;;;;13.52;52.07;93550.41;5064926;28;20327;-73
2023/04/21 08:22:04;;;;;;;11.85;4.50;;;;;;;13.61;52.03;93564.41;5064857;28;20031;-73
2023/04/21 08:24:29;;;;;;;12.68;4.82;;;;;;;13.52;50.90;93553.06;5064540;28;20088;-73
2023/04/21 08:26:56;;;;;;;8.02;4.60;;;;;;;13.33;51.40;93553.69;5064408;28;20016;-74
2023/04/21 08:29:22;;;;;;;8.82;4.47;;;;;;;13.32;51.95;93546.75;5064601;28;20020;-75
2023/04/21 08:31:47;;;;;;;7.75;4.65;;;;;;;13.42;51.71;93532.91;5064394;28;20232;-74
2023/04/21 08:34:13;;;;;;;10.85;5.05;;;;;;;13.62;52.60;93549.94;5064464;28;20084;-74
2023/04/21 08:36:40;;;;;;;6.93;4.30;;;;;;;13.58;51.66;93550.94;5064381;28;20021;-75
2023/04/21 08:39:06;;;;;;;8.80;4.65;;;;;;;13.56;51.38;93553.19;5064468;28;20369;-74
2023/04/21 08:41:31;;;;;;;9.13;5.35;;;;;;;13.67;50.92;93548.91;5062689;28;20025;-74
2023/04/21 08:43:57;;;;;;;11.15;5.30;;;;;;;13.67;51.53;93556.94;5063401;28;20069;-74
2023/04/21 08:46:23;;;;;;;16.02;5.63;;;;;;;13.72;50.66;93548.69;5064391;28;20104;-74
2023/04/21 08:48:48;;;;;;;7.70;4.22;;;;;;;13.63;50.47;93545.34;5064353;28;20093;-76
2023/04/21 08:51:22;;;;;;;9.77;5.25;;;;;;;13.76;51.01;93549.56;5064023;28;20107;-74
2023/04/21 08:53:48;;;;;;;10.52;5.03;;;;;;;13.70;50.58;93539.41;5064240;28;20040;-74
2023/04/21 08:56:14;;;;;;;9.80;4.97;;;;;;;13.75;50.65;93533.81;5064113;28;20032;-74
2023/04/21 08:58:40;;;;;;;9.25;4.72;;;;;;;13.76;50.54;93538.03;5063894;28;20215;-74
2023/04/21 09:01:05;;;;;;;8.73;4.80;;;;;;;13.85;50.32;93542.13;5064265;28;20048;-74
2023/04/21 09:03:31;;;;;;;9.98;4.25;;;;;;;13.81;49.89;93533.22;5063911;28;20091;-75
2023/04/21 09:06:03;;;;;;;10.00;4.38;;;;;;;13.84;49.93;93537.91;5063946;28;20326;-75
2023/04/21 09:08:29;;;;;;;8.98;4.90;;;;;;;13.86;50.54;93542.94;5063254;28;20215;-74
2023/04/21 09:10:56;;;;;;;8.02;4.03;;;;;;;13.84;49.23;93529.88;5063575;28;20107;-74
2023/04/21 09:13:28;;;;;;;11.20;4.35;;;;;;;13.84;49.87;93523.75;5063786;28;20051;-74
2023/04/21 09:15:54;;;;;;;6.32;3.92;;;;;;;13.91;49.55;93520.47;5064015;28;20020;-74
2023/04/21 09:18:21;;;;;;;9.18;3.85;;;;;;;14.04;49.20;93532.69;5063725;28;20139;-74
2023/04/21 09:20:49;;;;;;;6.68;4.00;;;;;;;14.02;49.46;93518.84;5063766;28;20031;-74
2023/04/21 09:23:15;;;;;;;7.05;3.90;;;;;;;14.17;49.09;93515.44;5063478;28;20029;-74
2023/04/21 09:25:44;;;;;;;9.55;4.30;;;;;;;14.25;48.67;93519.84;5063705;28;20234;-74
2023/04/21 09:28:12;;;;;;;7.35;4.30;;;;;;;14.39;48.26;93505.22;5063739;28;20024;-75
2023/04/21 09:30:39;;;;;;;6.70;3.65;;;;;;;14.55;48.76;93507.94;5062448;28;20032;-74
2023/04/21 09:33:05;;;;;;;8.45;4.63;;;;;;;14.67;47.75;93494.47;5063467;28;20096;-74
2023/04/21 09:35:35;;;;;;;9.63;4.32;;;;;;;14.76;46.57;93492.38;5062228;28;20025;-75
2023/04/21 09:38:02;;;;;;;9.20;3.67;;;;;;;14.87;46.47;93524.81;5063359;28;20021;-75
2023/04/21 09:40:31;;;;;;;6.95;4.13;;;;;;;14.96;46.88;93509.34;5063286;28;20617;-75
2023/04/21 09:42:56;;;;;;;11.05;3.50;;;;;;;15.14;44.93;93498.19;5062939;28;20029;-75
2023/04/21 09:45:26;;;;;;;6.07;3.83;;;;;;;15.31;45.49;93494.34;5063212;28;20100;-75
2023/04/21 09:47:56;;;;;;;9.00;4.05;;;;;;;15.43;45.05;93502.28;5063225;28;20020;-75
2023/04/21 09:50:23;;;;;;;11.68;4.05;;;;;;;15.57;44.19;93501.78;5063272;28;20091;-75
2023/04/21 09:52:53;;;;;;;11.48;3.90;;;;;;;15.59;44.03;93503.00;5062786;28;20017;-74
2023/04/21 09:55:23;;;;;;;12.15;4.13;;;;;;;15.43;44.67;93497.69;5063220;28;20017;-75
2023/04/21 09:57:51;;;;;;;10.38;4.13;;;;;;;15.41;45.06;93489.22;5062911;28;20017;-72
2023/04/21 10:00:19;;;;;;;7.45;3.58;;;;;;;15.45;45.89;93490.06;5062687;28;20067;-74
2023/04/21 10:02:48;;;;;;;14.45;3.35;;;;;;;15.67;45.20;93492.38;5062929;28;20041;-76
2023/04/21 10:05:14;;;;;;;7.93;4.03;;;;;;;15.87;42.96;93498.56;5062837;28;20024;-75
2023/04/21 10:07:39;;;;;;;6.60;3.35;;;;;;;15.88;43.27;93484.00;5062629;28;20016;-75
2023/04/21 10:10:34;;;;;;;8.75;3.90;;;;;;;15.87;42.42;93472.47;5062563;28;20307;-75
2023/04/21 10:13:00;;;;;;;5.88;3.17;;;;;;;16.01;43.17;93471.97;5057523;28;20231;-75
2023/04/21 10:15:33;;;;;;;6.93;3.05;;;;;;;15.91;42.57;93480.59;5062555;28;20337;-75
2023/04/21 10:18:18;;;;;;;5.85;3.22;;;;;;;16.01;41.83;93469.28;5062488;28;20071;-75
2023/04/21 10:20:56;;;;;;;5.00;3.15;;;;;;;16.09;40.77;93470.94;5062599;28;20009;-76
2023/04/21 10:23:47;;;;;;;16.95;3.80;;;;;;;16.02;41.04;93473.53;5062517;28;20104;-74
2023/04/21 10:26:31;;;;;;;12.57;3.40;;;;;;;16.05;40.82;93472.78;5062516;28;20275;-74
2023/04/21 10:28:59;;;;;;;5.90;3.05;;;;;;;16.11;40.94;93471.38;5062705;28;20037;-74
2023/04/21 10:31:32;;;;;;;11.73;3.88;;;;;;;16.03;41.77;93475.06;5062471;28;20227;-74
2023/04/21 10:34:12;;;;;;;7.88;4.03;;;;;;;15.86;42.08;93464.78;5062314;28;20013;-74
2023/04/21 10:36:44;;;;;;;9.30;3.90;;;;;;;15.70;42.94;93464.84;5061515;28;20200;-74
2023/04/21 10:39:15;;;;;;;6.13;3.75;;;;;;;15.43;43.85;93473.53;5062660;28;20033;-73
2023/04/21 10:41:42;;;;;;;5.78;3.42;;;;;;;15.28;44.76;93473.56;5062561;28;20025;-74
2023/04/21 10:44:13;;;;;;;7.72;3.55;;;;;;;15.11;45.25;93493.53;5062558;28;20040;-74
2023/04/21 10:46:40;;;;;;;4.60;2.78;;;;;;;15.07;45.96;93479.28;5062393;28;20060;-74
2023/04/21 10:49:05;;;;;;;6.20;3.55;;;;;;;15.09;45.41;93480.47;5062273;28;20025;-73
2023/04/21 10:51:31;;;;;;;7.05;3.70;;;;;;;15.10;45.94;93475.88;5062146;28;20075;-73
2023/04/21 10:53:57;;;;;;;6.53;3.47;;;;;;;15.18;46.01;93481.06;5062262;28;20082;-73
2023/04/21 10:56:24;;;;;;;8.80;4.05;;;;;;;15.30;46.70;93472.09;5062347;28;20268;-73
2023/04/21 10:58:51;;;;;;;7.88;3.55;;;;;;;15.45;45.33;93479.31;5062257;28;20025;-74
2023/04/21 11:01:17;;;;;;;5.65;2.80;;;;;;;15.41;43.51;93475.78;5062076;28;20048;-73
2023/04/21 11:03:43;;;;;;;8.80;3.30;;;;;;;15.44;43.62;93483.13;5062159;28;20098;-73
2023/04/21 11:06:17;;;;;;;4.28;2.97;;;;;;;15.52;43.83;93478.69;5065379;28;20092;-73
2023/04/21 11:08:57;;;;;;;11.52;3.78;;;;;;;15.52;43.10;93483.28;5066294;28;20024;-73
2023/04/21 11:11:23;;;;;;;9.45;3.38;;;;;;;15.61;43.60;93481.94;5065899;28;20021;-75
2023/04/21 11:13:51;;;;;;;7.18;3.53;;;;;;;15.70;43.79;93479.03;5066085;28;20394;-74
2023/04/21 11:16:18;;;;;;;11.50;3.28;;;;;;;15.78;43.12;93475.38;5065999;28;20024;-74
2023/04/21 11:18:44;;;;;;;8.88;3.60;;;;;;;15.87;42.38;93469.78;5064753;28;20091;-72
2023/04/21 11:21:16;;;;;;;8.70;3.17;;;;;;;15.91;42.07;93467.94;5066154;28;20028;-73
2023/04/21 11:23:47;;;;;;;;;;;;;;;16.03;42.68;93459.72;5065378;28;20025;-73
2023/04/21 11:26:12;;;;;;;11.20;4.25;;;;;;;16.09;40.82;93467.50;5065849;28;20153;-73
2023/04/21 11:28:40;;;;;;;8.88;3.28;;;;;;;16.19;40.98;93462.28;5066060;28;20060;-73